Liberty, Missouri
Current Conditions -  °F | °C
As of 4:15 AM on Friday 19 Dec 2014 (Local Time) from KGPH Reporting Station
Haze Haze  
Wind Chill: 32°   Ceiling: 400
Heat Index: 32°   Visibility: 2mi
Dew Point: 32°   Wind: 3mph
Humidity: 100%   Direction: 20°NNE
Pressure: 30.26"   Gusts: NA
Location:  39.25°N, 94.42°W
Report Text: KGPH 191015Z AUTO 02003KT 2SM BR OVC004 00/00 A3026 RMK AO2
Loading
Personal Weather Stations






























Interactive Weather Map New forecast layout! Learn more

10-Day Weather Forecast

Advertisements
Track Severe Weather on mobile